Time;durP1;ratioP1;P1;durP2;ratioP2;P2;SDS_P1;SDS_P2;PMS_P1;PMS_P2;Temp;Humidity;BMP_temperature;BMP_pressure;BME280_temperature;BME280_humidity;BME280_pressure;Samples;Min_cycle;Max_cycle;Signal;HPM_P1;HPM_P2
2022/04/10 00:01:09;;;;;;;6.35;2.28;;;;;;;;;;5081671;28;20050;-77
2022/04/10 00:03:35;;;;;;;6.60;1.42;;;;;;;;;;5065701;28;20065;-76
2022/04/10 00:06:01;;;;;;;4.85;1.85;;;;;;;;;;5064035;28;20039;-75
2022/04/10 00:08:27;;;;;;;8.70;1.63;;;;;;;;;;5081457;28;20040;-77
2022/04/10 00:10:53;;;;;;;7.32;1.45;;;;;;;;;;5082790;28;20382;-76
2022/04/10 00:13:19;;;;;;;8.27;1.75;;;;;;;;;;5074636;28;20113;-75
2022/04/10 00:15:45;;;;;;;8.25;1.42;;;;;;;;;;5081641;28;20032;-77
2022/04/10 00:18:11;;;;;;;5.13;1.98;;;;;;;;;;5063863;28;20455;-76
2022/04/10 00:20:37;;;;;;;9.88;1.27;;;;;;;;;;5082333;28;20130;-76
2022/04/10 00:23:04;;;;;;;13.65;2.33;;;;;;;;;;5064213;28;20480;-76
2022/04/10 00:25:30;;;;;;;4.05;1.27;;;;;;;;;;5064413;28;20046;-76
2022/04/10 00:27:56;;;;;;;8.32;2.00;;;;;;;;;;5065603;28;20028;-77
2022/04/10 00:30:22;;;;;;;6.93;1.90;;;;;;;;;;5080734;28;20040;-75
2022/04/10 00:32:48;;;;;;;3.90;1.65;;;;;;;;;;5064283;28;20487;-77
2022/04/10 00:35:14;;;;;;;10.40;1.65;;;;;;;;;;5065871;28;20075;-77
2022/04/10 00:37:40;;;;;;;9.55;2.13;;;;;;;;;;5062770;28;20043;-76
2022/04/10 00:40:07;;;;;;;10.50;2.03;;;;;;;;;;5064404;28;20400;-76
2022/04/10 00:42:34;;;;;;;4.35;1.65;;;;;;;;;;5063099;28;20036;-77
2022/04/10 00:45:00;;;;;;;4.40;1.20;;;;;;;;;;5100454;27;20059;-77
2022/04/10 00:47:26;;;;;;;7.30;2.05;;;;;;;;;;5104485;27;20039;-76
2022/04/10 00:49:53;;;;;;;2.42;1.17;;;;;;;;;;5106205;27;20031;-75
2022/04/10 00:52:19;;;;;;;11.15;2.13;;;;;;;;;;5100678;27;20039;-77
2022/04/10 00:54:46;;;;;;;6.25;1.58;;;;;;;;;;5104501;27;20074;-77
2022/04/10 00:57:12;;;;;;;5.07;1.60;;;;;;;;;;5088406;27;20519;-76
2022/04/10 00:59:40;;;;;;;6.80;1.77;;;;;;;;;;5103583;27;20479;-76
2022/04/10 01:02:05;;;;;;;9.15;2.45;;;;;;;;;;5104221;27;20502;-76
2022/04/10 01:04:32;;;;;;;6.20;1.77;;;;;;;;;;5093284;28;20040;-76
2022/04/10 01:06:59;;;;;;;6.10;1.65;;;;;;;;;;5068394;28;20035;-78
2022/04/10 01:09:25;;;;;;;5.65;1.15;;;;;;;;;;5067002;28;20035;-76
2022/04/10 01:11:54;;;;;;;1.25;0.80;;;;;;;;;;5066585;28;20039;-76
2022/04/10 01:14:21;;;;;;;4.00;1.30;;;;;;;;;;5084777;28;20028;-76
2022/04/10 01:16:47;;;;;;;7.28;1.20;;;;;;;;;;5067056;28;20032;-75
2022/04/10 01:19:13;;;;;;;6.25;2.78;;;;;;;;;;5071650;27;20070;-76
2022/04/10 01:21:44;;;;;;;5.55;1.65;;;;;;;;;;5103339;27;20047;-77
2022/04/10 01:24:14;;;;;;;5.75;1.35;;;;;;;;;;5103340;28;20044;-75
2022/04/10 01:26:40;;;;;;;4.70;1.75;;;;;;;;;;5105074;27;20039;-75
2022/04/10 01:29:10;;;;;;;9.75;2.00;;;;;;;;;;5087633;27;20040;-77
2022/04/10 01:31:37;;;;;;;7.00;1.75;;;;;;;;;;5103346;27;20408;-77
2022/04/10 01:34:05;;;;;;;7.68;1.50;;;;;;;;;;5103517;27;20045;-77
2022/04/10 01:36:31;;;;;;;3.97;1.33;;;;;;;;;;5104939;27;20043;-76
2022/04/10 01:38:58;;;;;;;9.30;1.52;;;;;;;;;;5085981;27;20044;-77
2022/04/10 01:41:27;;;;;;;9.05;1.85;;;;;;;;;;5103483;27;20039;-77
2022/04/10 01:43:54;;;;;;;5.30;1.42;;;;;;;;;;5087641;27;20503;-76
2022/04/10 01:46:20;;;;;;;12.30;2.45;;;;;;;;;;5086335;27;20347;-78
2022/04/10 01:48:46;;;;;;;6.88;1.50;;;;;;;;;;5103126;27;20079;-77
2022/04/10 01:51:13;;;;;;;5.85;2.20;;;;;;;;;;5104509;27;20503;-76
2022/04/10 01:53:39;;;;;;;3.90;1.38;;;;;;;;;;5085948;27;20043;-77
2022/04/10 01:56:06;;;;;;;5.30;1.55;;;;;;;;;;5103185;27;20177;-77
2022/04/10 01:58:32;;;;;;;11.38;1.85;;;;;;;;;;5087340;27;20057;-76
2022/04/10 02:00:58;;;;;;;4.75;1.38;;;;;;;;;;5102808;27;20291;-76
2022/04/10 02:03:24;;;;;;;7.85;1.67;;;;;;;;;;5103432;27;20046;-77
2022/04/10 02:05:50;;;;;;;7.57;1.60;;;;;;;;;;5087592;27;20085;-76
2022/04/10 02:08:16;;;;;;;5.28;1.20;;;;;;;;;;5085364;27;20071;-76
2022/04/10 02:10:42;;;;;;;4.03;1.52;;;;;;;;;;5103346;27;20027;-78
2022/04/10 02:13:08;;;;;;;8.50;2.10;;;;;;;;;;5087219;27;20493;-77
2022/04/10 02:15:37;;;;;;;9.88;1.38;;;;;;;;;;5101993;28;20518;-77
2022/04/10 02:18:03;;;;;;;1.77;1.17;;;;;;;;;;5103112;28;20035;-76
2022/04/10 02:20:29;;;;;;;6.18;1.45;;;;;;;;;;5087335;27;20074;-76
2022/04/10 02:22:55;;;;;;;8.68;1.63;;;;;;;;;;5081596;27;20427;-77
2022/04/10 02:25:21;;;;;;;6.57;1.65;;;;;;;;;;5086212;27;20384;-76
2022/04/10 02:27:47;;;;;;;6.65;2.25;;;;;;;;;;5102500;28;20039;-76
2022/04/10 02:30:13;;;;;;;6.50;2.63;;;;;;;;;;5104165;27;20042;-76
2022/04/10 02:32:40;;;;;;;7.45;1.77;;;;;;;;;;5102328;28;20038;-77
2022/04/10 02:35:07;;;;;;;7.38;1.40;;;;;;;;;;5102060;27;20062;-75
2022/04/10 02:37:33;;;;;;;9.75;1.63;;;;;;;;;;5104077;27;20474;-75
2022/04/10 02:39:59;;;;;;;8.93;1.85;;;;;;;;;;5102229;28;20091;-78
2022/04/10 02:42:25;;;;;;;5.93;1.15;;;;;;;;;;5102257;27;20069;-76
2022/04/10 02:44:51;;;;;;;8.95;1.50;;;;;;;;;;5095628;28;20051;-77
2022/04/10 02:47:17;;;;;;;5.90;2.45;;;;;;;;;;5114459;28;20083;-78
2022/04/10 02:49:43;;;;;;;9.50;1.67;;;;;;;;;;5114365;28;20121;-78
2022/04/10 02:52:08;;;;;;;6.95;1.58;;;;;;;;;;5114714;28;20031;-77
2022/04/10 02:54:36;;;;;;;8.00;1.30;;;;;;;;;;5113845;28;20047;-76
2022/04/10 02:57:02;;;;;;;9.52;2.13;;;;;;;;;;5114495;28;20410;-76
2022/04/10 02:59:28;;;;;;;5.78;1.45;;;;;;;;;;5114078;28;20494;-78
2022/04/10 03:01:53;;;;;;;7.97;1.75;;;;;;;;;;5114143;28;20042;-76
2022/04/10 03:04:19;;;;;;;6.20;1.30;;;;;;;;;;5114187;28;20121;-77
2022/04/10 03:06:45;;;;;;;9.43;1.63;;;;;;;;;;5113745;28;20039;-77
2022/04/10 03:09:11;;;;;;;4.05;1.25;;;;;;;;;;5113813;28;20042;-78
2022/04/10 03:11:37;;;;;;;9.73;1.70;;;;;;;;;;5114211;28;20448;-77
2022/04/10 03:14:03;;;;;;;12.10;2.17;;;;;;;;;;5114259;28;20145;-78
2022/04/10 03:16:29;;;;;;;7.72;1.80;;;;;;;;;;5114517;28;20096;-77
2022/04/10 03:18:55;;;;;;;6.22;1.65;;;;;;;;;;5113836;28;20031;-77
2022/04/10 03:21:21;;;;;;;5.68;1.63;;;;;;;;;;5113948;28;20499;-77
2022/04/10 03:23:47;;;;;;;3.65;0.95;;;;;;;;;;5113554;28;20126;-73
2022/04/10 03:26:13;;;;;;;1.50;1.40;;;;;;;;;;5114016;28;20039;-75
2022/04/10 03:28:58;;;;;;;5.97;1.23;;;;;;;;;;5135671;27;20433;-76
2022/04/10 03:31:24;;;;;;;6.97;1.73;;;;;;;;;;5117920;27;20126;-75
2022/04/10 03:33:50;;;;;;;10.85;1.08;;;;;;;;;;5118865;27;20043;-74
2022/04/10 03:36:17;;;;;;;9.32;1.02;;;;;;;;;;5119187;27;20402;-75
2022/04/10 03:38:43;;;;;;;4.25;1.00;;;;;;;;;;5119510;27;20039;-75
2022/04/10 03:41:09;;;;;;;9.60;1.85;;;;;;;;;;5118473;27;20043;-77
2022/04/10 03:43:35;;;;;;;8.82;1.25;;;;;;;;;;5117029;27;20051;-77
2022/04/10 03:46:01;;;;;;;12.07;1.63;;;;;;;;;;5117462;27;20062;-76
2022/04/10 03:48:28;;;;;;;4.47;1.10;;;;;;;;;;5117918;27;20039;-77
2022/04/10 03:50:54;;;;;;;4.70;0.95;;;;;;;;;;5117228;27;20035;-77
2022/04/10 03:53:20;;;;;;;2.47;1.17;;;;;;;;;;5117255;27;20376;-77
2022/04/10 03:55:47;;;;;;;7.30;1.90;;;;;;;;;;5117188;27;20043;-77
2022/04/10 03:58:13;;;;;;;2.25;0.90;;;;;;;;;;5117300;27;20126;-76
2022/04/10 04:00:39;;;;;;;3.83;0.65;;;;;;;;;;5118059;27;20473;-77
2022/04/10 04:03:05;;;;;;;2.75;0.85;;;;;;;;;;5117271;27;20078;-77
2022/04/10 04:05:31;;;;;;;5.97;1.40;;;;;;;;;;5117212;27;20483;-76
2022/04/10 04:07:57;;;;;;;7.50;1.83;;;;;;;;;;5116897;27;20084;-78
2022/04/10 04:10:23;;;;;;;3.15;0.80;;;;;;;;;;5117528;27;20038;-77
2022/04/10 04:12:49;;;;;;;5.00;1.23;;;;;;;;;;5116924;27;20035;-77
2022/04/10 04:15:15;;;;;;;3.75;1.42;;;;;;;;;;5117696;27;20070;-77
2022/04/10 04:17:41;;;;;;;4.97;1.38;;;;;;;;;;5117672;27;20047;-77
2022/04/10 04:20:07;;;;;;;7.53;1.70;;;;;;;;;;5116994;27;20043;-76
2022/04/10 04:22:37;;;;;;;2.63;1.75;;;;;;;;;;5117364;27;20158;-77
2022/04/10 04:25:15;;;;;;;6.03;1.27;;;;;;;;;;5117067;27;20035;-75
2022/04/10 04:27:41;;;;;;;7.15;1.40;;;;;;;;;;5117294;27;20062;-78
2022/04/10 04:30:07;;;;;;;3.65;0.93;;;;;;;;;;5116695;27;20070;-75
2022/04/10 04:32:34;;;;;;;7.25;1.50;;;;;;;;;;5116688;27;20160;-78
2022/04/10 04:35:00;;;;;;;5.93;1.15;;;;;;;;;;5116555;27;20045;-77
2022/04/10 04:37:25;;;;;;;2.15;1.13;;;;;;;;;;5116912;27;20042;-78
2022/04/10 04:39:51;;;;;;;6.28;1.33;;;;;;;;;;5119691;27;20047;-77
2022/04/10 04:42:17;;;;;;;5.00;1.00;;;;;;;;;;5120499;27;20104;-76
2022/04/10 04:44:43;;;;;;;2.60;0.75;;;;;;;;;;5117746;27;20062;-75
2022/04/10 04:47:09;;;;;;;3.60;1.00;;;;;;;;;;5117406;27;20074;-77
2022/04/10 04:49:35;;;;;;;3.35;0.80;;;;;;;;;;5116613;27;20039;-77
2022/04/10 04:52:01;;;;;;;7.85;1.33;;;;;;;;;;5117766;27;20035;-77
2022/04/10 04:54:27;;;;;;;5.78;1.00;;;;;;;;;;5116285;27;20089;-78
2022/04/10 04:56:53;;;;;;;4.32;0.93;;;;;;;;;;5116548;27;20043;-77
2022/04/10 04:59:19;;;;;;;2.53;0.60;;;;;;;;;;5116208;27;20047;-76
2022/04/10 05:01:45;;;;;;;2.83;0.52;;;;;;;;;;5117225;27;20104;-77
2022/04/10 05:04:12;;;;;;;4.63;0.77;;;;;;;;;;5116194;27;20051;-76
2022/04/10 05:06:38;;;;;;;6.07;0.90;;;;;;;;;;5115951;27;20031;-75
2022/04/10 05:09:05;;;;;;;2.50;1.02;;;;;;;;;;5115728;27;20548;-76
2022/04/10 05:11:31;;;;;;;2.25;1.00;;;;;;;;;;5116112;27;20035;-77
2022/04/10 05:13:57;;;;;;;4.90;0.95;;;;;;;;;;5115989;27;20050;-76
2022/04/10 05:16:23;;;;;;;1.88;0.80;;;;;;;;;;5115754;27;20039;-78
2022/04/10 05:18:49;;;;;;;2.63;0.68;;;;;;;;;;5115778;27;20089;-77
2022/04/10 05:21:15;;;;;;;1.90;0.50;;;;;;;;;;5115169;27;20191;-77
2022/04/10 05:23:41;;;;;;;0.52;0.30;;;;;;;;;;5115366;27;20117;-77
2022/04/10 05:26:07;;;;;;;14.30;1.27;;;;;;;;;;5115450;27;20031;-78
2022/04/10 05:28:34;;;;;;;11.05;1.10;;;;;;;;;;5115527;27;20057;-77
2022/04/10 05:31:01;;;;;;;1.67;0.57;;;;;;;;;;5115886;27;20407;-76
2022/04/10 05:33:27;;;;;;;2.42;0.70;;;;;;;;;;5115522;27;20041;-76
2022/04/10 05:35:54;;;;;;;3.70;0.80;;;;;;;;;;5115234;27;20126;-75
2022/04/10 05:38:21;;;;;;;2.60;0.60;;;;;;;;;;5115139;27;20047;-76
2022/04/10 05:40:52;;;;;;;1.48;0.52;;;;;;;;;;5115287;27;20130;-76
2022/04/10 05:43:18;;;;;;;2.85;0.80;;;;;;;;;;5115549;27;20070;-77
2022/04/10 05:45:44;;;;;;;5.75;0.82;;;;;;;;;;5115516;27;20051;-76
2022/04/10 05:48:10;;;;;;;1.98;1.20;;;;;;;;;;5115401;27;20031;-78
2022/04/10 05:50:36;;;;;;;3.75;1.50;;;;;;;;;;5114619;27;20042;-77
2022/04/10 05:53:02;;;;;;;4.45;1.05;;;;;;;;;;5114827;27;20477;-77
2022/04/10 05:55:29;;;;;;;4.88;0.80;;;;;;;;;;5114689;27;20035;-76
2022/04/10 05:57:55;;;;;;;5.03;0.90;;;;;;;;;;5114992;27;20046;-76
2022/04/10 06:00:21;;;;;;;1.88;1.00;;;;;;;;;;5115139;27;20039;-77
2022/04/10 06:02:47;;;;;;;2.78;0.95;;;;;;;;;;5114799;27;20460;-79
2022/04/10 06:05:13;;;;;;;1.90;0.88;;;;;;;;;;5114636;27;20044;-77
2022/04/10 06:07:39;;;;;;;2.25;0.80;;;;;;;;;;5114971;27;20035;-77
2022/04/10 06:10:06;;;;;;;4.63;0.77;;;;;;;;;;5114824;27;20039;-78
2022/04/10 06:12:32;;;;;;;4.85;1.10;;;;;;;;;;5114852;27;20031;-79
2022/04/10 06:14:58;;;;;;;5.50;0.70;;;;;;;;;;5114904;27;20046;-76
2022/04/10 06:17:24;;;;;;;4.53;1.20;;;;;;;;;;5114451;27;20039;-78
2022/04/10 06:19:50;;;;;;;6.35;1.75;;;;;;;;;;5114895;27;20047;-79
2022/04/10 06:22:16;;;;;;;2.80;1.10;;;;;;;;;;5109603;28;20043;-77
2022/04/10 06:24:42;;;;;;;6.47;1.10;;;;;;;;;;5088174;27;20043;-75
2022/04/10 06:27:08;;;;;;;5.72;0.90;;;;;;;;;;5087985;27;20569;-77
2022/04/10 06:29:34;;;;;;;3.35;1.15;;;;;;;;;;5103521;27;20084;-77
2022/04/10 06:32:00;;;;;;;3.08;0.70;;;;;;;;;;5087394;27;20417;-77
2022/04/10 06:34:26;;;;;;;5.07;1.52;;;;;;;;;;5103365;28;20446;-77
2022/04/10 06:36:52;;;;;;;5.40;1.20;;;;;;;;;;5103881;27;20031;-77
2022/04/10 06:39:17;;;;;;;1.35;0.90;;;;;;;;;;5086555;27;20044;-75
2022/04/10 06:41:43;;;;;;;3.55;0.90;;;;;;;;;;5101341;28;20103;-75
2022/04/10 06:44:10;;;;;;;4.30;1.67;;;;;;;;;;5103937;28;20059;-72
2022/04/10 06:46:36;;;;;;;2.10;0.80;;;;;;;;;;5101882;28;20044;-73
2022/04/10 06:49:02;;;;;;;3.33;0.80;;;;;;;;;;5102747;28;20540;-72
2022/04/10 06:51:28;;;;;;;2.15;0.80;;;;;;;;;;5086586;28;20506;-73
2022/04/10 06:53:54;;;;;;;4.57;0.90;;;;;;;;;;5101313;28;20032;-73
2022/04/10 06:56:20;;;;;;;6.43;1.25;;;;;;;;;;5102949;28;20045;-74
2022/04/10 06:58:46;;;;;;;7.97;1.33;;;;;;;;;;5086794;28;20371;-72
2022/04/10 07:01:12;;;;;;;3.50;1.00;;;;;;;;;;5101866;28;20433;-71
2022/04/10 07:03:38;;;;;;;2.05;0.98;;;;;;;;;;5106213;27;20031;-70
2022/04/10 07:06:04;;;;;;;4.78;0.98;;;;;;;;;;5089897;27;20048;-70
2022/04/10 07:08:30;;;;;;;4.22;1.08;;;;;;;;;;5105347;27;20047;-71
2022/04/10 07:10:56;;;;;;;5.40;1.67;;;;;;;;;;5107593;27;20066;-70
2022/04/10 07:13:22;;;;;;;3.17;0.88;;;;;;;;;;5089686;27;20032;-72
2022/04/10 07:15:50;;;;;;;4.63;1.10;;;;;;;;;;5114595;27;20082;-71
2022/04/10 07:18:16;;;;;;;1.08;0.80;;;;;;;;;;5117277;27;20097;-71
2022/04/10 07:20:42;;;;;;;5.63;1.20;;;;;;;;;;5116828;27;20050;-71
2022/04/10 07:25:53;;;;;;;1.50;0.60;;;;;;;;;;5117002;27;20047;-71
2022/04/10 07:28:19;;;;;;;3.80;0.60;;;;;;;;;;5117640;27;20086;-73
2022/04/10 07:30:45;;;;;;;1.70;0.65;;;;;;;;;;5117614;27;20081;-71
2022/04/10 07:33:11;;;;;;;2.38;0.65;;;;;;;;;;5113437;27;20571;-71
2022/04/10 07:35:40;;;;;;;1.10;0.77;;;;;;;;;;5103246;27;20069;-73
2022/04/10 07:38:06;;;;;;;4.97;0.90;;;;;;;;;;5084798;27;20046;-73
2022/04/10 07:40:33;;;;;;;2.55;0.70;;;;;;;;;;5101024;27;20072;-72
2022/04/10 07:42:59;;;;;;;0.82;0.60;;;;;;;;;;5080871;28;20055;-73
2022/04/10 07:48:10;;;;;;;2.00;1.00;;;;;;;;;;5099581;28;20040;-73
2022/04/10 07:50:36;;;;;;;3.00;0.70;;;;;;;;;;5098869;28;20483;-72
2022/04/10 07:53:02;;;;;;;3.33;1.08;;;;;;;;;;5101812;28;20084;-73
2022/04/10 07:55:28;;;;;;;3.85;1.25;;;;;;;;;;5100657;28;20039;-73
2022/04/10 07:57:55;;;;;;;2.63;1.23;;;;;;;;;;5099801;28;20070;-73
2022/04/10 08:00:21;;;;;;;2.30;0.60;;;;;;;;;;5101319;28;20449;-73
2022/04/10 08:02:50;;;;;;;4.35;1.00;;;;;;;;;;5083099;28;20032;-71
2022/04/10 08:05:17;;;;;;;3.10;0.80;;;;;;;;;;5108411;28;20443;-74
2022/04/10 08:07:44;;;;;;;5.32;1.17;;;;;;;;;;5112327;28;20046;-74
2022/04/10 08:10:10;;;;;;;5.93;1.15;;;;;;;;;;5111666;28;20071;-73
2022/04/10 08:12:36;;;;;;;3.40;1.10;;;;;;;;;;5111679;28;20456;-72
2022/04/10 08:15:03;;;;;;;2.90;0.98;;;;;;;;;;5110679;28;20096;-75
2022/04/10 08:17:29;;;;;;;0.98;0.75;;;;;;;;;;5111508;28;20054;-71
2022/04/10 08:19:55;;;;;;;3.05;0.88;;;;;;;;;;5111486;28;20035;-74
2022/04/10 08:22:27;;;;;;;1.92;0.73;;;;;;;;;;5109198;28;20046;-73
2022/04/10 08:24:54;;;;;;;2.97;0.93;;;;;;;;;;5096261;28;20114;-71
2022/04/10 08:27:21;;;;;;;1.50;0.73;;;;;;;;;;5099751;28;20102;-68
2022/04/10 08:29:47;;;;;;;3.08;0.95;;;;;;;;;;5100860;28;20032;-68
2022/04/10 08:32:13;;;;;;;2.03;1.00;;;;;;;;;;5096138;28;20035;-69
2022/04/10 08:34:39;;;;;;;1.95;0.90;;;;;;;;;;5101849;28;20035;-68
2022/04/10 08:37:05;;;;;;;3.53;0.95;;;;;;;;;;5099591;28;20120;-71
2022/04/10 08:39:31;;;;;;;1.65;0.60;;;;;;;;;;5081257;28;20126;-70
2022/04/10 08:42:00;;;;;;;4.00;0.73;;;;;;;;;;5082826;28;20050;-70
2022/04/10 08:44:28;;;;;;;2.40;0.75;;;;;;;;;;5062775;27;1039829;-70
2022/04/10 08:46:54;;;;;;;7.68;0.93;;;;;;;;;;5097169;27;20392;-70
2022/04/10 08:49:21;;;;;;;5.47;0.93;;;;;;;;;;5101062;27;20407;-71
2022/04/10 08:51:47;;;;;;;3.40;1.00;;;;;;;;;;5101156;27;20114;-71
2022/04/10 08:54:14;;;;;;;6.03;1.13;;;;;;;;;;5079754;27;20505;-71
2022/04/10 08:56:40;;;;;;;4.25;1.65;;;;;;;;;;5100708;27;20050;-71
2022/04/10 08:59:06;;;;;;;2.78;0.90;;;;;;;;;;5101568;27;20139;-70
2022/04/10 09:01:31;;;;;;;6.53;1.15;;;;;;;;;;5099091;27;20463;-69
2022/04/10 09:03:57;;;;;;;3.80;1.00;;;;;;;;;;5102403;27;20402;-69
2022/04/10 09:06:23;;;;;;;4.32;0.98;;;;;;;;;;5077319;28;20453;-73
2022/04/10 09:08:49;;;;;;;6.57;0.80;;;;;;;;;;5091664;28;20402;-69
2022/04/10 09:11:15;;;;;;;4.93;0.70;;;;;;;;;;5074486;28;20423;-72
2022/04/10 09:13:47;;;;;;;5.55;0.82;;;;;;;;;;5091033;28;20042;-70
2022/04/10 09:16:14;;;;;;;2.08;0.98;;;;;;;;;;5074899;28;20050;-71
2022/04/10 09:18:49;;;;;;;4.25;1.30;;;;;;;;;;5091806;28;20417;-72
2022/04/10 09:21:16;;;;;;;3.72;0.80;;;;;;;;;;5074487;28;20051;-71
2022/04/10 09:23:45;;;;;;;4.40;0.95;;;;;;;;;;5091517;28;20043;-69
2022/04/10 09:26:12;;;;;;;6.53;1.70;;;;;;;;;;5072891;28;20047;-69
2022/04/10 09:28:42;;;;;;;5.68;1.02;;;;;;;;;;5090942;28;20118;-71
2022/04/10 09:31:29;;;;;;;4.97;0.82;;;;;;;;;;5091033;28;20043;-69
2022/04/10 09:33:55;;;;;;;4.13;0.77;;;;;;;;;;5090897;28;20457;-71
2022/04/10 09:36:38;;;;;;;5.20;1.42;;;;;;;;;;5073996;28;20058;-70
2022/04/10 09:39:08;;;;;;;3.40;0.95;;;;;;;;;;5092006;28;20058;-70
2022/04/10 09:41:34;;;;;;;4.97;0.90;;;;;;;;;;5074476;28;20052;-71
2022/04/10 09:44:01;;;;;;;6.28;1.10;;;;;;;;;;5073888;28;20093;-69
2022/04/10 09:46:27;;;;;;;5.82;1.23;;;;;;;;;;5090686;28;20059;-69
2022/04/10 09:48:53;;;;;;;1.13;0.70;;;;;;;;;;5090921;28;20384;-72
2022/04/10 09:51:19;;;;;;;1.95;0.73;;;;;;;;;;5073729;28;20088;-72
2022/04/10 09:54:01;;;;;;;2.72;0.60;;;;;;;;;;5073743;28;20508;-72
2022/04/10 09:56:28;;;;;;;1.95;0.65;;;;;;;;;;5074169;28;20047;-70
2022/04/10 09:58:56;;;;;;;1.30;0.77;;;;;;;;;;5073856;28;20042;-71
2022/04/10 10:01:22;;;;;;;5.10;1.23;;;;;;;;;;5090578;28;20049;-70
2022/04/10 10:03:48;;;;;;;2.00;0.85;;;;;;;;;;5073219;28;20047;-70
2022/04/10 10:06:15;;;;;;;4.65;0.85;;;;;;;;;;5090587;28;20486;-69
2022/04/10 10:08:42;;;;;;;4.50;1.27;;;;;;;;;;5073534;28;20171;-70
2022/04/10 10:11:08;;;;;;;2.05;0.98;;;;;;;;;;5090184;28;20079;-69
2022/04/10 10:13:37;;;;;;;5.28;0.55;;;;;;;;;;5073161;28;20114;-69
2022/04/10 10:16:03;;;;;;;8.60;1.08;;;;;;;;;;5090380;28;20126;-70
2022/04/10 10:18:29;;;;;;;2.92;1.20;;;;;;;;;;5090262;28;20043;-72
2022/04/10 10:20:55;;;;;;;4.90;1.08;;;;;;;;;;5089995;28;20046;-70
2022/04/10 10:23:22;;;;;;;2.45;0.80;;;;;;;;;;5073429;28;20043;-71
2022/04/10 10:26:07;;;;;;;2.97;0.63;;;;;;;;;;5090004;28;20047;-69
2022/04/10 10:28:33;;;;;;;3.83;0.77;;;;;;;;;;5073074;28;20112;-72
2022/04/10 10:31:18;;;;;;;3.28;0.77;;;;;;;;;;5090229;28;20031;-71
2022/04/10 10:33:52;;;;;;;2.97;1.05;;;;;;;;;;5073301;28;20036;-69
2022/04/10 10:36:28;;;;;;;2.67;0.60;;;;;;;;;;5073467;28;20043;-71
2022/04/10 10:38:55;;;;;;;4.00;0.80;;;;;;;;;;5089799;28;20411;-71
2022/04/10 10:41:21;;;;;;;1.13;1.00;;;;;;;;;;5073252;28;20539;-68
2022/04/10 10:43:48;;;;;;;3.97;0.90;;;;;;;;;;5090143;28;20191;-70
2022/04/10 10:46:21;;;;;;;2.78;0.80;;;;;;;;;;5090080;28;20047;-68
2022/04/10 10:48:47;;;;;;;3.25;1.00;;;;;;;;;;5089944;28;20082;-69
2022/04/10 10:51:13;;;;;;;6.32;0.68;;;;;;;;;;5089433;28;20043;-70
2022/04/10 10:53:43;;;;;;;6.00;1.23;;;;;;;;;;5089703;28;20505;-70
2022/04/10 10:56:13;;;;;;;2.72;1.02;;;;;;;;;;5091144;28;20055;-70
2022/04/10 10:58:40;;;;;;;4.70;1.40;;;;;;;;;;5091199;28;20052;-70
2022/04/10 11:01:07;;;;;;;5.95;0.90;;;;;;;;;;5089631;28;20043;-68
2022/04/10 11:03:53;;;;;;;2.13;0.73;;;;;;;;;;5089438;28;20517;-71
2022/04/10 11:06:21;;;;;;;4.78;1.00;;;;;;;;;;5072491;28;20106;-70
2022/04/10 11:08:47;;;;;;;2.53;1.58;;;;;;;;;;5089640;28;20381;-72
2022/04/10 11:11:19;;;;;;;5.13;0.90;;;;;;;;;;5089995;28;20054;-71
2022/04/10 11:13:46;;;;;;;3.88;1.10;;;;;;;;;;5072352;28;20399;-69
2022/04/10 11:16:15;;;;;;;3.10;0.82;;;;;;;;;;5073143;28;20035;-72
2022/04/10 11:18:50;;;;;;;2.78;0.90;;;;;;;;;;5073087;28;20048;-74
2022/04/10 11:21:20;;;;;;;2.00;1.00;;;;;;;;;;5090360;28;20047;-70
2022/04/10 11:23:46;;;;;;;5.22;0.98;;;;;;;;;;5089586;28;20043;-72
2022/04/10 11:26:13;;;;;;;5.05;1.10;;;;;;;;;;5072105;28;20048;-70
2022/04/10 11:28:58;;;;;;;1.80;0.90;;;;;;;;;;5089403;28;20035;-70
2022/04/10 11:31:39;;;;;;;2.22;0.70;;;;;;;;;;5089488;28;20103;-69
2022/04/10 11:34:05;;;;;;;;;;;;;;;;;;5090153;28;20054;-71
2022/04/10 11:36:44;;;;;;;4.68;1.20;;;;;;;;;;5072513;28;20364;-70
2022/04/10 11:39:10;;;;;;;5.88;1.00;;;;;;;;;;5089188;28;20055;-70
2022/04/10 11:41:37;;;;;;;1.92;0.90;;;;;;;;;;5089202;28;20043;-69
2022/04/10 11:44:06;;;;;;;2.83;1.27;;;;;;;;;;5072183;28;20070;-71
2022/04/10 11:46:32;;;;;;;4.38;0.98;;;;;;;;;;5089144;28;20130;-73
2022/04/10 11:48:58;;;;;;;3.45;0.90;;;;;;;;;;5090218;28;20590;-69
2022/04/10 11:51:24;;;;;;;3.03;1.00;;;;;;;;;;5076097;28;20514;-70
2022/04/10 11:53:58;;;;;;;1.88;0.75;;;;;;;;;;5076441;28;20264;-69
2022/04/10 11:56:25;;;;;;;3.67;1.30;;;;;;;;;;5076094;28;20046;-69
2022/04/10 11:58:51;;;;;;;1.70;0.60;;;;;;;;;;5092994;28;20096;-71
2022/04/10 12:01:19;;;;;;;1.15;0.60;;;;;;;;;;5076365;28;20043;-70
2022/04/10 12:03:49;;;;;;;1.95;0.82;;;;;;;;;;5075940;28;20071;-71
2022/04/10 12:06:21;;;;;;;2.67;0.73;;;;;;;;;;5093030;28;20035;-75
2022/04/10 12:08:48;;;;;;;3.08;0.65;;;;;;;;;;5075734;28;20369;-72
2022/04/10 12:11:15;;;;;;;3.17;1.05;;;;;;;;;;5093029;28;20126;-71
2022/04/10 12:13:41;;;;;;;6.65;0.90;;;;;;;;;;5075322;28;20061;-70
2022/04/10 12:16:11;;;;;;;2.75;0.70;;;;;;;;;;5075766;28;20074;-74
2022/04/10 12:18:53;;;;;;;2.15;0.75;;;;;;;;;;5076223;28;20039;-70
2022/04/10 12:21:20;;;;;;;3.40;0.70;;;;;;;;;;5075760;28;20043;-70
2022/04/10 12:23:46;;;;;;;4.28;0.93;;;;;;;;;;5092647;28;20264;-70
2022/04/10 12:26:12;;;;;;;1.50;0.90;;;;;;;;;;5083666;27;20042;-73
2022/04/10 12:28:39;;;;;;;3.15;0.95;;;;;;;;;;5083870;27;20118;-73
2022/04/10 12:31:05;;;;;;;4.80;1.63;;;;;;;;;;5086285;27;20095;-73
2022/04/10 12:33:33;;;;;;;4.65;0.63;;;;;;;;;;5103559;27;20533;-71
2022/04/10 12:35:59;;;;;;;3.75;0.88;;;;;;;;;;5104727;27;20047;-72
2022/04/10 12:38:30;;;;;;;2.67;0.80;;;;;;;;;;5104444;27;20495;-69
2022/04/10 12:41:05;;;;;;;2.95;1.00;;;;;;;;;;5104994;27;20043;-69
2022/04/10 12:43:32;;;;;;;5.05;1.38;;;;;;;;;;5085487;27;20044;-68
2022/04/10 12:46:11;;;;;;;4.18;0.80;;;;;;;;;;5104579;27;20096;-73
2022/04/10 12:48:37;;;;;;;2.10;0.82;;;;;;;;;;5087674;27;20472;-71
2022/04/10 12:51:29;;;;;;;5.15;0.98;;;;;;;;;;5104611;27;20114;-73
2022/04/10 12:53:55;;;;;;;3.33;1.05;;;;;;;;;;5099603;27;20048;-71
2022/04/10 12:56:22;;;;;;;2.30;0.57;;;;;;;;;;5104258;27;20462;-69
2022/04/10 12:58:49;;;;;;;3.67;0.95;;;;;;;;;;5083866;28;20054;-75
2022/04/10 13:01:29;;;;;;;3.08;0.70;;;;;;;;;;5077256;28;20096;-73
2022/04/10 13:03:56;;;;;;;3.78;0.70;;;;;;;;;;5078898;28;20385;-72
2022/04/10 13:06:27;;;;;;;1.67;0.93;;;;;;;;;;5095254;28;20097;-69
2022/04/10 13:08:53;;;;;;;1.95;0.93;;;;;;;;;;5095214;28;20479;-69
2022/04/10 13:11:19;;;;;;;4.55;1.40;;;;;;;;;;5078048;28;20035;-70
2022/04/10 13:14:03;;;;;;;2.85;0.80;;;;;;;;;;5078729;28;20551;-72
2022/04/10 13:16:30;;;;;;;4.57;1.23;;;;;;;;;;5095370;28;20073;-73
2022/04/10 13:18:56;;;;;;;2.15;1.00;;;;;;;;;;5094795;28;20126;-71
2022/04/10 13:21:23;;;;;;;2.90;1.13;;;;;;;;;;5078017;28;20036;-74
2022/04/10 13:23:49;;;;;;;1.58;0.80;;;;;;;;;;5095427;28;20051;-75
2022/04/10 13:26:24;;;;;;;2.22;0.88;;;;;;;;;;5096471;28;20047;-76
2022/04/10 13:28:50;;;;;;;1.80;0.82;;;;;;;;;;5077927;28;20122;-69
2022/04/10 13:31:16;;;;;;;1.30;0.73;;;;;;;;;;5094972;28;20162;-70
2022/04/10 13:33:42;;;;;;;3.88;0.85;;;;;;;;;;5094593;28;20080;-70
2022/04/10 13:36:08;;;;;;;3.40;0.75;;;;;;;;;;5077803;28;20047;-69
2022/04/10 13:38:34;;;;;;;2.40;0.70;;;;;;;;;;5094518;28;20497;-70
2022/04/10 13:41:00;;;;;;;0.80;0.55;;;;;;;;;;5094557;28;20040;-70
2022/04/10 13:43:26;;;;;;;1.65;0.82;;;;;;;;;;5094553;28;20063;-74
2022/04/10 13:45:52;;;;;;;7.85;1.13;;;;;;;;;;5094411;28;20191;-68
2022/04/10 13:48:18;;;;;;;1.50;0.90;;;;;;;;;;5094339;28;20050;-71
2022/04/10 13:50:44;;;;;;;3.10;1.05;;;;;;;;;;5094555;28;20088;-70
2022/04/10 13:53:10;;;;;;;2.45;0.80;;;;;;;;;;5094310;28;20039;-74
2022/04/10 13:55:36;;;;;;;2.30;0.80;;;;;;;;;;5094297;28;20096;-71
2022/04/10 13:58:02;;;;;;;1.38;1.02;;;;;;;;;;5094327;28;20414;-70
2022/04/10 14:00:28;;;;;;;2.53;0.65;;;;;;;;;;5077273;28;20464;-72
2022/04/10 14:02:54;;;;;;;2.80;0.98;;;;;;;;;;5077365;28;20035;-75
2022/04/10 14:05:20;;;;;;;2.03;0.60;;;;;;;;;;5078086;28;20406;-77
2022/04/10 14:07:46;;;;;;;2.42;0.80;;;;;;;;;;5095405;28;20298;-70
2022/04/10 14:10:12;;;;;;;2.00;0.65;;;;;;;;;;5094134;28;20043;-69
2022/04/10 14:12:38;;;;;;;0.50;0.50;;;;;;;;;;5076660;28;20378;-71
2022/04/10 14:15:05;;;;;;;8.27;0.93;;;;;;;;;;5077176;28;20512;-74
2022/04/10 14:17:30;;;;;;;2.92;0.73;;;;;;;;;;5077235;28;20084;-69
2022/04/10 14:19:57;;;;;;;4.38;1.38;;;;;;;;;;5094252;28;20122;-69
2022/04/10 14:22:23;;;;;;;4.13;0.95;;;;;;;;;;5077007;28;20031;-74
2022/04/10 14:24:49;;;;;;;0.68;0.68;;;;;;;;;;5094118;28;20398;-75
2022/04/10 14:27:15;;;;;;;1.30;0.82;;;;;;;;;;5095064;28;20464;-76
2022/04/10 14:29:41;;;;;;;2.45;0.90;;;;;;;;;;5093988;28;20075;-73
2022/04/10 14:32:07;;;;;;;3.72;0.70;;;;;;;;;;5093779;28;20499;-74
2022/04/10 14:34:35;;;;;;;2.97;1.23;;;;;;;;;;5094181;28;20045;-76
2022/04/10 14:37:01;;;;;;;2.70;1.02;;;;;;;;;;5094112;28;20082;-69
2022/04/10 14:39:27;;;;;;;5.47;0.85;;;;;;;;;;5094416;28;20051;-75
2022/04/10 14:41:56;;;;;;;1.23;0.60;;;;;;;;;;5093601;28;20043;-69
2022/04/10 14:44:22;;;;;;;7.25;1.48;;;;;;;;;;5076137;28;20526;-71
2022/04/10 14:46:48;;;;;;;1.17;0.60;;;;;;;;;;5076869;28;20419;-77
2022/04/10 14:49:14;;;;;;;3.67;0.90;;;;;;;;;;5093693;28;20044;-76